createdAt,value
2017-06-16T00:00:28.479Z,5.40
2017-06-16T00:02:56.087Z,5.20
2017-06-16T00:05:23.602Z,5.43
2017-06-16T00:07:51.775Z,5.67
2017-06-16T00:10:19.327Z,6.00
2017-06-16T00:12:46.837Z,5.17
2017-06-16T00:15:14.402Z,6.13
2017-06-16T00:17:42.012Z,6.07
2017-06-16T00:20:09.662Z,5.60
2017-06-16T00:22:37.239Z,6.97
2017-06-16T00:25:04.839Z,6.57
2017-06-16T00:27:32.339Z,5.63
2017-06-16T00:29:59.907Z,5.40
2017-06-16T00:32:27.406Z,5.40
2017-06-16T00:34:54.962Z,5.83
2017-06-16T00:37:22.538Z,5.20
2017-06-16T00:39:50.034Z,7.57
2017-06-16T00:42:17.558Z,6.20
2017-06-16T00:44:45.131Z,6.17
2017-06-16T00:47:12.641Z,6.13
2017-06-16T00:49:40.179Z,6.83
2017-06-16T00:52:07.747Z,5.83
2017-06-16T00:54:35.255Z,7.07
2017-06-16T00:57:02.761Z,5.80
2017-06-16T00:59:30.524Z,6.20
2017-06-16T01:01:58.027Z,6.93
2017-06-16T01:04:25.922Z,7.27
2017-06-16T01:06:53.446Z,6.00
2017-06-16T01:09:20.942Z,5.67
2017-06-16T01:11:48.522Z,7.00
2017-06-16T01:14:16.093Z,6.57
2017-06-16T01:16:43.623Z,7.40
2017-06-16T01:19:11.128Z,7.40
2017-06-16T01:21:38.703Z,6.20
2017-06-16T01:24:06.248Z,7.70
2017-06-16T01:26:33.854Z,7.47
2017-06-16T01:29:01.903Z,8.00
2017-06-16T01:31:29.466Z,7.27
2017-06-16T01:33:56.978Z,7.57
2017-06-16T01:36:24.531Z,7.80
2017-06-16T01:38:52.047Z,7.43
2017-06-16T01:41:19.797Z,8.33
2017-06-16T01:43:47.375Z,8.07
2017-06-16T01:46:14.890Z,8.30
2017-06-16T01:48:42.450Z,9.27
2017-06-16T01:51:10.113Z,7.67
2017-06-16T01:53:37.619Z,9.00
2017-06-16T01:56:05.316Z,8.80
2017-06-16T01:58:32.859Z,7.67
2017-06-16T02:01:00.453Z,8.37
2017-06-16T02:03:27.966Z,8.70
2017-06-16T02:05:55.652Z,8.00
2017-06-16T02:08:23.151Z,8.13
2017-06-16T02:10:50.702Z,8.40
2017-06-16T02:13:18.427Z,8.43
2017-06-16T02:15:45.937Z,8.97
2017-06-16T02:18:13.450Z,10.10
2017-06-16T02:20:41.218Z,9.10
2017-06-16T02:23:08.723Z,10.63
2017-06-16T02:25:36.233Z,8.63
2017-06-16T02:28:03.806Z,8.50
2017-06-16T02:30:31.311Z,8.50
2017-06-16T02:32:58.853Z,9.10
2017-06-16T02:35:26.511Z,8.63
2017-06-16T02:37:54.060Z,9.47
2017-06-16T02:40:21.646Z,8.70
2017-06-16T02:42:49.187Z,8.77
2017-06-16T02:45:16.712Z,9.83
2017-06-16T02:47:43.984Z,8.90
2017-06-16T02:50:11.595Z,7.80
2017-06-16T02:52:39.208Z,10.40
2017-06-16T02:55:06.783Z,8.30
2017-06-16T02:57:34.343Z,8.83
2017-06-16T03:00:01.873Z,7.90
2017-06-16T03:02:30.405Z,7.80
2017-06-16T03:04:58.125Z,9.33
2017-06-16T03:07:25.628Z,7.50
2017-06-16T03:09:53.135Z,7.13
2017-06-16T03:12:20.711Z,7.60
2017-06-16T03:14:48.211Z,7.23
2017-06-16T03:17:15.731Z,6.23
2017-06-16T03:19:43.333Z,6.77
2017-06-16T03:22:10.852Z,6.10
2017-06-16T03:24:44.107Z,5.33
2017-06-16T03:27:11.617Z,5.33
2017-06-16T03:29:39.126Z,4.90
2017-06-16T03:32:06.712Z,4.70
2017-06-16T03:34:34.215Z,5.10
2017-06-16T03:37:01.721Z,5.80
2017-06-16T03:39:29.284Z,4.70
2017-06-16T03:41:56.789Z,5.30
2017-06-16T03:44:24.292Z,4.40
2017-06-16T03:46:51.878Z,4.43
2017-06-16T03:49:19.399Z,5.07
2017-06-16T03:51:46.910Z,3.90
2017-06-16T03:54:14.651Z,4.37
2017-06-16T03:56:41.921Z,3.80
2017-06-16T03:59:09.431Z,4.27
2017-06-16T04:01:37.038Z,3.90
2017-06-16T04:04:04.547Z,4.20
2017-06-16T04:06:32.051Z,4.63
2017-06-16T04:08:59.629Z,4.10
2017-06-16T04:11:27.141Z,4.50
2017-06-16T04:13:54.649Z,3.37
2017-06-16T04:16:22.251Z,4.03
2017-06-16T04:18:49.883Z,4.10
2017-06-16T04:21:17.388Z,3.80
2017-06-16T04:23:45.385Z,4.10
2017-06-16T04:26:12.903Z,4.10
2017-06-16T04:28:40.420Z,3.90
2017-06-16T04:31:07.971Z,3.80
2017-06-16T04:33:35.483Z,3.50
2017-06-16T04:36:03.063Z,3.60
2017-06-16T04:38:30.634Z,3.87
2017-06-16T04:40:58.144Z,4.23
2017-06-16T04:43:25.643Z,3.50
2017-06-16T04:45:53.531Z,3.83
2017-06-16T04:48:21.035Z,3.67
2017-06-16T04:50:48.739Z,4.63
2017-06-16T04:53:16.652Z,3.73
2017-06-16T04:55:44.498Z,4.40
2017-06-16T04:58:12.036Z,4.43
2017-06-16T05:00:39.598Z,4.70
2017-06-16T05:03:07.109Z,4.80
2017-06-16T05:05:34.659Z,4.00
2017-06-16T05:08:02.243Z,4.67
2017-06-16T05:10:29.748Z,3.90
2017-06-16T05:12:57.268Z,3.70
2017-06-16T05:15:24.969Z,3.70
2017-06-16T05:17:52.483Z,3.53
2017-06-16T05:20:20.004Z,4.90
2017-06-16T05:22:53.184Z,3.27
2017-06-16T05:25:20.719Z,3.93
2017-06-16T05:27:48.224Z,3.43
2017-06-16T05:30:15.931Z,3.27
2017-06-16T05:32:43.609Z,3.90
2017-06-16T05:35:11.119Z,3.50
2017-06-16T05:37:38.675Z,4.07
2017-06-16T05:40:06.195Z,3.57
2017-06-16T05:42:33.704Z,3.40
2017-06-16T05:45:01.327Z,4.07
2017-06-16T05:47:28.963Z,3.10
2017-06-16T05:49:56.470Z,3.13
2017-06-16T05:52:24.523Z,3.43
2017-06-16T05:54:52.029Z,4.17
2017-06-16T05:57:19.543Z,3.00
2017-06-16T05:59:47.148Z,3.30
2017-06-16T06:02:14.839Z,3.27
2017-06-16T06:04:42.440Z,3.80
2017-06-16T06:07:10.075Z,3.17
2017-06-16T06:09:37.589Z,3.30
2017-06-16T06:12:05.176Z,3.50
2017-06-16T06:14:32.792Z,3.07
2017-06-16T06:17:00.399Z,2.70
2017-06-16T06:19:27.940Z,2.53
2017-06-16T06:21:55.568Z,2.90
2017-06-16T06:24:23.128Z,2.37
2017-06-16T06:26:50.739Z,2.70
2017-06-16T06:29:18.351Z,2.70
2017-06-16T06:31:45.878Z,2.77
2017-06-16T06:34:13.499Z,2.30
2017-06-16T06:36:41.048Z,2.40
2017-06-16T06:39:08.549Z,3.10
2017-06-16T06:41:36.056Z,2.57
2017-06-16T06:44:03.647Z,3.13
2017-06-16T06:46:31.213Z,2.63
2017-06-16T06:48:58.740Z,2.20
2017-06-16T06:51:26.371Z,2.93
2017-06-16T06:53:53.883Z,3.40
2017-06-16T06:56:21.395Z,2.27
2017-06-16T06:58:48.987Z,2.73
2017-06-16T07:01:16.659Z,2.50
2017-06-16T07:03:44.351Z,2.57
2017-06-16T07:06:12.052Z,2.80
2017-06-16T07:08:39.571Z,2.97
2017-06-16T07:11:07.079Z,3.27
2017-06-16T07:13:34.656Z,2.87
2017-06-16T07:16:02.204Z,3.10
2017-06-16T07:18:29.707Z,3.30
2017-06-16T07:20:57.264Z,2.50
2017-06-16T07:23:24.930Z,2.03
2017-06-16T07:25:52.605Z,2.87
2017-06-16T07:28:20.216Z,2.50
2017-06-16T07:30:47.792Z,2.60
2017-06-16T07:33:15.376Z,2.43
2017-06-16T07:35:43.049Z,2.50
2017-06-16T07:38:10.679Z,3.20
2017-06-16T07:40:38.183Z,2.60
2017-06-16T07:43:05.743Z,2.63
2017-06-16T07:45:33.411Z,3.03
2017-06-16T07:48:00.915Z,3.10
2017-06-16T07:50:28.739Z,2.63
2017-06-16T07:52:56.396Z,3.13
2017-06-16T07:55:24.100Z,2.20
2017-06-16T07:57:51.924Z,2.50
2017-06-16T08:00:19.580Z,2.80
2017-06-16T08:02:47.311Z,2.47
2017-06-16T08:05:14.991Z,2.13
2017-06-16T08:07:42.971Z,2.53
2017-06-16T08:10:10.476Z,2.17
2017-06-16T08:12:38.176Z,2.30
2017-06-16T08:15:05.679Z,2.27
2017-06-16T08:17:33.180Z,2.20
2017-06-16T08:20:00.761Z,2.60
2017-06-16T08:22:29.235Z,2.33
2017-06-16T08:24:56.749Z,2.33
2017-06-16T08:27:24.312Z,2.30
2017-06-16T08:29:51.856Z,2.17
2017-06-16T08:32:19.435Z,2.67
2017-06-16T08:34:47.297Z,2.27
2017-06-16T08:37:15.359Z,2.53
2017-06-16T08:39:42.899Z,2.30
2017-06-16T08:42:10.459Z,2.13
2017-06-16T08:44:37.967Z,2.30
2017-06-16T08:47:05.699Z,3.40
2017-06-16T08:49:33.333Z,2.10
2017-06-16T08:52:01.123Z,2.37
2017-06-16T08:54:28.648Z,2.10
2017-06-16T08:56:56.387Z,2.50
2017-06-16T08:59:23.899Z,2.20
2017-06-16T09:01:51.409Z,1.80
2017-06-16T09:04:19.198Z,1.57
2017-06-16T09:06:46.712Z,2.20
2017-06-16T09:09:14.464Z,2.20
2017-06-16T09:11:42.363Z,2.47
2017-06-16T09:14:09.863Z,1.90
2017-06-16T09:16:37.375Z,1.70
2017-06-16T09:19:04.943Z,1.90
2017-06-16T09:21:32.444Z,1.83
2017-06-16T09:23:59.979Z,1.93
2017-06-16T09:26:27.519Z,1.90
2017-06-16T09:28:55.023Z,1.67
2017-06-16T09:31:22.526Z,1.93
2017-06-16T09:33:50.092Z,1.87
2017-06-16T09:36:17.674Z,2.30
2017-06-16T09:38:45.180Z,2.10
2017-06-16T09:41:12.744Z,1.57
2017-06-16T09:43:40.259Z,1.73
2017-06-16T09:46:07.772Z,2.37
2017-06-16T09:48:35.635Z,2.07
2017-06-16T09:51:03.183Z,1.60
2017-06-16T09:53:30.710Z,2.20
2017-06-16T09:55:58.255Z,1.90
2017-06-16T09:58:25.767Z,1.50
2017-06-16T10:00:53.280Z,2.03
2017-06-16T10:03:20.832Z,2.30
2017-06-16T10:05:48.111Z,2.00
2017-06-16T10:08:15.615Z,1.83
2017-06-16T10:10:43.502Z,2.40
2017-06-16T10:13:11.052Z,2.00
2017-06-16T10:15:38.623Z,2.00
2017-06-16T10:18:06.203Z,1.70
2017-06-16T10:20:33.733Z,1.80
2017-06-16T10:23:01.255Z,1.93
2017-06-16T10:25:28.832Z,1.93
2017-06-16T10:27:56.404Z,2.97
2017-06-16T10:30:23.920Z,3.23
2017-06-16T10:32:51.488Z,3.30
2017-06-16T10:35:18.996Z,2.17
2017-06-16T10:37:46.603Z,2.40
2017-06-16T10:40:14.160Z,2.50
2017-06-16T10:42:41.676Z,2.63
2017-06-16T10:45:09.187Z,2.97
2017-06-16T10:47:36.738Z,2.90
2017-06-16T10:50:04.275Z,3.20
2017-06-16T10:52:31.791Z,3.20
2017-06-16T10:54:59.344Z,2.80
2017-06-16T10:57:26.852Z,2.63
2017-06-16T10:59:54.362Z,2.63
2017-06-16T11:02:21.967Z,3.10
2017-06-16T11:04:49.471Z,2.80
2017-06-16T11:07:16.995Z,2.90
2017-06-16T11:09:44.580Z,3.00
2017-06-16T11:12:12.079Z,3.10
2017-06-16T11:14:39.593Z,3.03
2017-06-16T11:17:07.240Z,3.33
2017-06-16T11:19:34.756Z,2.67
2017-06-16T11:22:02.271Z,3.00
2017-06-16T11:24:29.905Z,3.10
2017-06-16T11:26:57.411Z,3.57
2017-06-16T11:29:24.919Z,3.40
2017-06-16T11:31:52.521Z,3.20
2017-06-16T11:34:20.029Z,3.00
2017-06-16T11:36:47.536Z,3.50
2017-06-16T11:39:15.127Z,3.03
2017-06-16T11:41:42.635Z,3.17
2017-06-16T11:44:10.138Z,3.50
2017-06-16T11:46:37.701Z,3.57
2017-06-16T11:49:05.241Z,4.87
2017-06-16T11:51:32.757Z,3.50
2017-06-16T11:54:00.683Z,3.43
2017-06-16T11:56:28.191Z,2.97
2017-06-16T11:58:55.718Z,3.43
2017-06-16T12:01:23.283Z,3.77
2017-06-16T12:03:50.814Z,3.27
2017-06-16T12:06:18.342Z,3.50
2017-06-16T12:08:45.960Z,3.50
2017-06-16T12:11:13.461Z,3.53
2017-06-16T12:13:40.980Z,2.93
2017-06-16T12:16:08.555Z,3.13
2017-06-16T12:18:36.084Z,3.50
2017-06-16T12:21:03.595Z,4.20
2017-06-16T12:23:31.159Z,3.23
2017-06-16T12:25:58.802Z,4.07
2017-06-16T12:28:26.303Z,3.60
2017-06-16T12:30:53.862Z,3.07
2017-06-16T12:33:21.371Z,4.50
2017-06-16T12:35:48.872Z,3.40
2017-06-16T12:38:16.685Z,3.77
2017-06-16T12:40:44.189Z,3.17
2017-06-16T12:43:11.694Z,2.90
2017-06-16T12:45:39.339Z,3.60
2017-06-16T12:48:06.851Z,3.07
2017-06-16T12:50:34.365Z,3.70
2017-06-16T12:53:01.920Z,3.93
2017-06-16T12:55:29.432Z,3.90
2017-06-16T12:57:56.936Z,2.87
2017-06-16T13:00:24.507Z,4.03
2017-06-16T13:02:52.008Z,4.07
2017-06-16T13:05:19.523Z,2.53
2017-06-16T13:07:47.100Z,3.13
2017-06-16T13:10:14.695Z,3.37
2017-06-16T13:12:42.201Z,2.80
2017-06-16T13:15:09.760Z,3.00
2017-06-16T13:17:37.272Z,3.97
2017-06-16T13:20:04.773Z,3.43
2017-06-16T13:22:32.323Z,3.50
2017-06-16T13:24:59.999Z,3.50
2017-06-16T13:27:27.508Z,3.20
2017-06-16T13:29:55.106Z,3.83
2017-06-16T13:32:22.652Z,3.23
2017-06-16T13:34:50.164Z,3.07
2017-06-16T13:37:17.743Z,3.67
2017-06-16T13:39:45.247Z,3.53
2017-06-16T13:42:12.756Z,3.43
2017-06-16T13:44:40.710Z,3.00
2017-06-16T13:47:08.212Z,3.20
2017-06-16T13:49:35.743Z,3.47
2017-06-16T13:52:03.326Z,4.53
2017-06-16T13:54:31.009Z,3.27
2017-06-16T13:56:58.546Z,3.20
2017-06-16T13:59:26.098Z,3.47
2017-06-16T14:01:53.615Z,4.20
2017-06-16T14:04:21.201Z,4.00
2017-06-16T14:06:48.743Z,3.20
2017-06-16T14:09:16.285Z,3.20
2017-06-16T14:11:43.804Z,3.30
2017-06-16T14:14:11.368Z,4.03
2017-06-16T14:16:38.911Z,3.33
2017-06-16T14:19:06.439Z,4.20
2017-06-16T14:21:34.000Z,3.07
2017-06-16T14:24:01.511Z,4.07
2017-06-16T14:26:29.024Z,5.00
2017-06-16T14:28:56.615Z,4.13
2017-06-16T14:31:24.124Z,2.90
2017-06-16T14:33:51.639Z,3.37
2017-06-16T14:36:19.189Z,3.70
2017-06-16T14:38:46.700Z,3.67
2017-06-16T14:41:14.224Z,4.27
2017-06-16T14:43:41.818Z,3.40
2017-06-16T14:46:09.336Z,3.20
2017-06-16T14:48:36.848Z,2.67
2017-06-16T14:51:04.535Z,3.60
2017-06-16T14:53:32.035Z,3.30
2017-06-16T14:55:59.547Z,4.20
2017-06-16T14:58:27.125Z,3.80
2017-06-16T15:00:54.628Z,3.83
2017-06-16T15:03:22.130Z,3.00
2017-06-16T15:05:49.703Z,3.43
2017-06-16T15:08:17.227Z,4.17
2017-06-16T15:10:44.736Z,2.50
2017-06-16T15:13:12.599Z,2.77
2017-06-16T15:15:40.280Z,3.77
2017-06-16T15:18:07.847Z,4.00
2017-06-16T15:20:35.415Z,3.17
2017-06-16T15:23:02.943Z,3.10
2017-06-16T15:25:30.455Z,3.50
2017-06-16T15:27:58.064Z,3.20
2017-06-16T15:30:25.571Z,3.47
2017-06-16T15:32:53.137Z,3.63
2017-06-16T15:35:20.691Z,3.77
2017-06-16T15:37:48.196Z,2.63
2017-06-16T15:40:15.758Z,3.27
2017-06-16T15:42:43.335Z,3.43
2017-06-16T15:45:10.839Z,3.30
2017-06-16T15:47:38.345Z,3.70
2017-06-16T15:50:06.058Z,3.00
2017-06-16T15:52:33.571Z,3.17
2017-06-16T15:55:01.096Z,3.90
2017-06-16T15:57:28.652Z,3.97
2017-06-16T15:59:56.156Z,3.13
2017-06-16T16:02:23.676Z,3.37
2017-06-16T16:04:51.240Z,3.30
2017-06-16T16:07:18.759Z,3.53
2017-06-16T16:09:46.268Z,3.10
2017-06-16T16:12:14.152Z,3.90
2017-06-16T16:14:41.669Z,3.50
2017-06-16T16:17:09.172Z,3.00
2017-06-16T16:19:36.759Z,3.40
2017-06-16T16:22:04.271Z,3.97
2017-06-16T16:24:31.779Z,4.00
2017-06-16T16:26:59.513Z,5.23
2017-06-16T16:29:27.015Z,3.37
2017-06-16T16:31:54.543Z,3.77
2017-06-16T16:34:22.095Z,3.50
2017-06-16T16:36:49.597Z,3.40
2017-06-16T16:39:17.105Z,3.83
2017-06-16T16:41:45.026Z,3.33
2017-06-16T16:44:12.529Z,4.10
2017-06-16T16:46:40.027Z,3.10
2017-06-16T16:49:07.595Z,3.80
2017-06-16T16:51:35.103Z,3.93
2017-06-16T16:54:02.611Z,3.20
2017-06-16T16:56:30.207Z,3.43
2017-06-16T16:58:57.715Z,3.60
2017-06-16T17:01:25.219Z,3.80
2017-06-16T17:03:52.775Z,4.50
2017-06-16T17:06:20.287Z,3.33
2017-06-16T17:08:47.827Z,3.90
2017-06-16T17:11:15.492Z,3.43
2017-06-16T17:13:43.011Z,3.30
2017-06-16T17:16:10.537Z,3.63
2017-06-16T17:18:38.131Z,3.77
2017-06-16T17:21:05.657Z,3.17
2017-06-16T17:23:33.171Z,3.03
2017-06-16T17:26:00.723Z,4.07
2017-06-16T17:28:28.227Z,3.73
2017-06-16T17:30:55.764Z,3.23
2017-06-16T17:33:23.335Z,4.07
2017-06-16T17:35:50.843Z,3.57
2017-06-16T17:38:18.352Z,3.07
2017-06-16T17:40:45.928Z,3.60
2017-06-16T17:43:13.432Z,3.83
2017-06-16T17:45:40.944Z,3.10
2017-06-16T17:48:08.592Z,4.03
2017-06-16T17:50:36.099Z,3.60
2017-06-16T17:53:03.608Z,4.33
2017-06-16T17:55:31.418Z,3.40
2017-06-16T17:57:58.924Z,3.77
2017-06-16T18:00:26.439Z,3.13
2017-06-16T18:02:54.019Z,4.27
2017-06-16T18:05:21.532Z,3.63
2017-06-16T18:07:49.039Z,4.53
2017-06-16T18:10:16.592Z,3.90
2017-06-16T18:12:44.095Z,4.17
2017-06-16T18:15:11.651Z,3.50
2017-06-16T18:17:39.227Z,3.83
2017-06-16T18:20:06.771Z,4.00
2017-06-16T18:22:34.271Z,3.80
2017-06-16T18:25:01.852Z,4.23
2017-06-16T18:27:29.362Z,3.93
2017-06-16T18:29:56.903Z,3.87
2017-06-16T18:32:24.457Z,3.60
2017-06-16T18:34:51.978Z,5.40
2017-06-16T18:37:19.643Z,3.23
2017-06-16T18:39:47.208Z,4.07
2017-06-16T18:42:14.712Z,3.60
2017-06-16T18:44:43.180Z,3.67
2017-06-16T18:47:10.771Z,4.17
2017-06-16T18:49:38.287Z,3.60
2017-06-16T18:52:05.791Z,3.70
2017-06-16T18:54:33.362Z,4.53
2017-06-16T18:57:00.957Z,4.13
2017-06-16T18:59:28.469Z,4.30
2017-06-16T19:01:56.018Z,3.30
2017-06-16T19:04:23.527Z,3.40
2017-06-16T19:06:51.032Z,3.80
2017-06-16T19:09:18.584Z,3.67
2017-06-16T19:11:46.145Z,3.40
2017-06-16T19:14:13.643Z,4.03
2017-06-16T19:16:41.211Z,3.30
2017-06-16T19:19:08.747Z,4.40
2017-06-16T19:21:36.363Z,3.73
2017-06-16T19:24:03.910Z,3.60
2017-06-16T19:26:31.413Z,4.20
2017-06-16T19:28:58.916Z,4.37
2017-06-16T19:31:26.464Z,3.90
2017-06-16T19:33:53.968Z,4.67
2017-06-16T19:36:21.503Z,4.50
2017-06-16T19:38:49.076Z,4.00
2017-06-16T19:41:16.586Z,3.73
2017-06-16T19:43:44.091Z,4.63
2017-06-16T19:46:11.741Z,4.07
2017-06-16T19:48:39.240Z,3.57
2017-06-16T19:51:06.743Z,4.33
2017-06-16T19:53:34.301Z,4.70
2017-06-16T19:56:01.811Z,4.20
2017-06-16T19:58:29.349Z,4.60
2017-06-16T20:00:56.983Z,4.93
2017-06-16T20:03:24.493Z,4.60
2017-06-16T20:05:52.039Z,4.20
2017-06-16T20:08:19.667Z,3.90
2017-06-16T20:10:47.211Z,4.53
2017-06-16T20:13:14.724Z,4.13
2017-06-16T20:15:42.288Z,4.60
2017-06-16T20:18:09.787Z,4.03
2017-06-16T20:20:37.287Z,4.00
2017-06-16T20:23:04.946Z,4.07
2017-06-16T20:25:32.468Z,4.47
2017-06-16T20:27:59.979Z,4.33
2017-06-16T20:30:27.605Z,4.73
2017-06-16T20:32:55.111Z,4.23
2017-06-16T20:35:22.623Z,4.33
2017-06-16T20:37:50.201Z,4.03
2017-06-16T20:40:18.498Z,5.00
2017-06-16T20:42:46.000Z,4.47
2017-06-16T20:45:13.640Z,4.13
2017-06-16T20:47:41.143Z,4.10
2017-06-16T20:50:08.657Z,4.70
2017-06-16T20:52:36.210Z,4.40
2017-06-16T20:55:03.740Z,4.00
2017-06-16T20:57:31.271Z,4.30
2017-06-16T20:59:58.851Z,4.77
2017-06-16T21:02:26.355Z,4.77
2017-06-16T21:04:53.872Z,4.77
2017-06-16T21:07:21.676Z,4.90
2017-06-16T21:09:49.183Z,4.40
2017-06-16T21:12:16.687Z,4.27
2017-06-16T21:14:44.303Z,4.30
2017-06-16T21:17:11.957Z,4.63
2017-06-16T21:19:39.536Z,5.53
2017-06-16T21:22:28.095Z,5.00
2017-06-16T21:24:55.779Z,5.43
2017-06-16T21:27:23.507Z,5.07
2017-06-16T21:29:51.291Z,5.13
2017-06-16T21:32:18.901Z,5.10
2017-06-16T21:34:46.396Z,3.83
2017-06-16T21:37:14.360Z,5.00
2017-06-16T21:39:41.865Z,4.17
2017-06-16T21:42:09.400Z,4.37
2017-06-16T21:44:36.956Z,4.70
2017-06-16T21:47:04.459Z,4.40
2017-06-16T21:49:31.972Z,5.17
2017-06-16T21:51:59.597Z,4.57
2017-06-16T21:54:27.103Z,3.90
2017-06-16T21:56:54.603Z,4.60
2017-06-16T21:59:22.140Z,4.70
2017-06-16T22:01:49.893Z,5.60
2017-06-16T22:04:17.396Z,4.70
2017-06-16T22:06:45.001Z,4.50
2017-06-16T22:09:12.543Z,3.80
2017-06-16T22:11:40.739Z,4.53
2017-06-16T22:14:08.359Z,4.57
2017-06-16T22:16:35.870Z,4.10
2017-06-16T22:19:03.369Z,4.10
2017-06-16T22:21:30.987Z,4.00
2017-06-16T22:23:58.518Z,4.23
2017-06-16T22:26:26.019Z,4.40
2017-06-16T22:28:54.051Z,4.97
2017-06-16T22:31:21.556Z,5.43
2017-06-16T22:33:49.103Z,4.53
2017-06-16T22:36:16.716Z,4.80
2017-06-16T22:38:44.246Z,5.00
2017-06-16T22:41:11.756Z,4.20
2017-06-16T22:43:39.468Z,3.73
2017-06-16T22:46:06.978Z,3.73
2017-06-16T22:48:34.495Z,4.97
2017-06-16T22:51:02.120Z,4.90
2017-06-16T22:53:29.668Z,4.80
2017-06-16T22:55:57.724Z,4.37
2017-06-16T22:58:25.308Z,3.70
2017-06-16T23:00:52.851Z,5.00
2017-06-16T23:03:20.352Z,3.57
2017-06-16T23:05:47.920Z,4.50
2017-06-16T23:08:15.429Z,5.27
2017-06-16T23:10:42.928Z,3.80
2017-06-16T23:13:10.547Z,4.80
2017-06-16T23:15:38.058Z,3.50
2017-06-16T23:18:05.568Z,4.13
2017-06-16T23:20:33.123Z,4.70
2017-06-16T23:23:00.632Z,3.80
2017-06-16T23:25:28.214Z,5.07
2017-06-16T23:27:55.763Z,4.70
2017-06-16T23:30:23.259Z,4.37
2017-06-16T23:32:50.767Z,3.80
2017-06-16T23:35:18.319Z,4.70
2017-06-16T23:37:45.827Z,4.80
2017-06-16T23:40:13.335Z,4.07
2017-06-16T23:42:40.898Z,4.17
2017-06-16T23:45:08.407Z,4.23
2017-06-16T23:47:35.919Z,4.00
2017-06-16T23:50:03.750Z,4.63
2017-06-16T23:52:31.266Z,4.53
2017-06-16T23:54:58.772Z,4.67
2017-06-16T23:57:26.328Z,5.13
2017-06-16T23:59:53.884Z,4.30
